Terminal Aerodrome Forecast
Issued by NWS

Home | Current Version | Previous Version | Graphics & Text | Print | Product List | Glossary On
Versions: 1 2 3 4 5 6 7 8 9 10 11 12 13 14 15
000
FTUS43 KMPX 222334
TAFRWF
TAF
KRWF 222334Z 2300/2324 18007KT P6SM SCT250
     FM230700 21009KT P6SM BKN200
     FM230900 25009KT P6SM BKN150
     FM231400 28014G23KT P6SM BKN120
     FM231800 31019G29KT P6SM OVC080=

USA.gov is the U.S. government's official web portal to all federal, state and local government web resources and services.